Latest Coastal Weather Observations for Port Lincoln Airport

IDS60701

Issued at 3:41 pm CDT Tuesday 24 January 2017 (issued every 10 minutes, with the page automatically refreshed every 10 minutes)

About coastal observations | Map of coastal stations | Coastal observations for SA | Marine services | Other Formats
Station Details ID: 018192 Name: PORT LINCOLN AWS Lat: -34.60 Lon: 135.88 Height: 8.5 m
Data from the previous 72 hours. | See also: Recent months at Port Lincoln Airport
Date/Time
CDT
Temp
°C
Wind Pressure Rain since
9am
mm
Weather Cloud Vis
km
Sea
Height
m
Swell
Dir  Spd
kts
Gust
kts
hPa Trend Height
m
Period
s
Dir
24/03:30pm 20.8 SSE 13 18 1019.8 - 0.0 - Partly cloudy 10 - - - -
24/03:00pm 21.2 SSE 13 18 1019.9 - 0.0 - Mostly clear 10 - - - -
24/02:30pm 21.9 SSE 13 18 1019.9 - 0.0 - Partly cloudy 10 - - - -
24/02:00pm 20.9 SSE 13 18 1020.0 - 0.0 - Partly cloudy 10 - - - -
24/01:30pm 21.7 SE 13 17 1019.8 - 0.0 - Partly cloudy 10 - - - -
24/01:00pm 20.4 SE 13 16 1019.9 - 0.0 - Cloudy 10 - - - -
24/12:30pm 21.1 SE 14 18 1019.7 - 0.0 - Partly cloudy 10 - - - -
24/12:00pm 21.2 SE 12 17 1019.6 - 0.0 - Partly cloudy 10 - - - -
24/11:30am 20.4 SSE 11 17 1019.6 - 0.0 - Partly cloudy 10 - - - -
24/11:00am 20.1 SSE 12 16 1019.4 - 0.0 - Partly cloudy 10 - - - -
24/10:30am 19.8 SSE 12 16 1019.2 - 0.0 - Partly cloudy 10 - - - -
24/10:00am 19.6 SSE 11 16 1019.0 - 0.0 - Partly cloudy 10 - - - -
24/09:30am 18.9 S 12 16 1019.0 - 0.0 - Partly cloudy 10 - - - -
24/09:00am 18.0 S 13 16 1018.5 - 17.4 - Partly cloudy 10 - - - -
24/08:30am 18.4 S 15 21 1018.0 - 17.4 - Partly cloudy 10 - - - -
24/08:00am 18.0 SSE 14 17 1017.2 - 17.4 - Partly cloudy 10 - - - -
24/07:30am 17.3 S 14 18 1016.6 - 17.4 - Partly cloudy 10 - - - -
24/07:00am 16.6 S 13 17 1016.2 - 17.4 - Partly cloudy 10 - - - -
24/06:30am 15.7 SW 7 9 1016.0 - 17.4 - Partly cloudy 10 - - - -
24/06:00am 15.2 SW 8 11 1015.5 - 17.4 - Mostly clear 10 - - - -
24/05:30am 15.8 SW 8 10 1015.2 - 17.4 - Partly cloudy 10 - - - -
24/05:00am 15.9 SW 9 12 1014.7 - 17.4 - Partly cloudy 10 - - - -
24/04:30am 16.1 SW 9 11 1014.4 - 17.4 - Partly cloudy 10 - - - -
24/04:00am 16.2 SW 8 10 1014.2 - 17.4 - Partly cloudy 10 - - - -
24/03:30am 16.4 SW 8 11 1014.1 - 17.4 - Partly cloudy 10 - - - -
24/03:00am 16.5 SSW 11 15 1013.8 - 17.4 - Mostly clear 10 - - - -
24/02:30am 16.9 SSW 11 14 1013.6 - 17.4 - Partly cloudy 10 - - - -
24/02:00am 17.0 SW 7 10 1013.2 - 17.4 - Partly cloudy 10 - - - -
24/01:30am 17.2 SW 7 10 1013.1 - 17.4 - Partly cloudy 10 - - - -
24/01:00am 17.4 SW 9 11 1012.7 - 17.4 - - 10 - - - -
24/12:30am 17.8 SW 9 11 1012.6 - 17.4 - - 10 - - - -
24/12:00am 18.0 SW 9 12 1012.3 - 17.4 - - 10 - - - -
 
Date/Time
CDT
Temp
°C
Wind Pressure Rain since
9am
mm
Weather Cloud Vis
km
Sea
Height
m
Swell
Dir  Spd
kts
Gust
kts
hPa Trend Height
m
Period
s
Dir
23/11:30pm 18.1 SW 9 12 1012.0 - 17.4 - Partly cloudy 10 - - - -
23/11:00pm 18.3 SW 9 14 1011.8 - 17.4 - - 10 - - - -
23/10:30pm 18.5 SW 9 13 1011.3 - 17.4 - Partly cloudy 10 - - - -
23/10:00pm 18.9 SW 11 15 1010.8 - 17.4 - Partly cloudy 10 - - - -
23/09:44pm 19.1 SW 13 18 1010.5 - 17.4 - Partly cloudy 10 - - - -
23/09:30pm 19.5 SW 13 21 1010.2 - 17.4 - Partly cloudy 10 - - - -
23/09:00pm 19.7 SW 10 14 1009.4 - 17.4 - Cloudy 10 - - - -
23/08:30pm 19.8 SW 11 18 1008.7 - 17.4 - Cloudy 10 - - - -
23/08:00pm 20.1 SW 13 20 1008.2 - 17.4 - Cloudy 10 - - - -
23/07:30pm 20.5 SW 13 18 1007.3 - 17.4 - Cloudy 10 - - - -
23/07:00pm 20.4 SW 9 13 1006.5 - 17.4 - Cloudy 10 - - - -
23/06:30pm 19.9 SW 11 14 1006.0 - 17.4 - Cloudy 10 - - - -
23/06:00pm 20.8 SW 11 15 1005.8 - 17.4 - Cloudy 10 - - - -
23/05:30pm 21.6 WSW 10 14 1005.2 - 17.4 - Cloudy 10 - - - -
23/05:00pm 22.1 WSW 9 11 1004.9 - 17.4 - Cloudy 10 - - - -
23/04:42pm 22.3 W 11 15 1005.0 - 17.4 - Cloudy 8 - - - -
23/04:30pm 22.6 W 9 13 1005.0 - 17.4 - Cloudy 5 - - - -
23/04:15pm 23.0 WSW 8 12 1005.0 - 17.4 - Cloudy 5 - - - -
23/04:00pm 23.5 WNW 7 10 1004.9 - 17.4 - Cloudy 10 - - - -
23/03:30pm 23.3 W 5 8 1004.9 - 17.4 - Cloudy 10 - - - -
23/03:13pm 23.2 NW 6 9 1004.9 - 17.2 - Partly cloudy 10 - - - -
23/03:00pm 23.1 NNW 7 11 1005.0 - 17.2 Recent precip. Cloudy 10 - - - -
23/02:30pm 23.1 NW 11 14 1005.1 - 16.8 - Partly cloudy 10 - - - -
23/02:00pm 22.9 NW 9 13 1004.8 - 16.6 - Cloudy 10 - - - -
23/01:52pm 22.9 NW 9 13 1004.9 - 16.2 - Partly cloudy 10 - - - -
23/01:48pm 23.0 NW 8 12 1005.0 - 16.0 - Partly cloudy 10 - - - -
23/01:34pm 23.1 NW 3 7 1005.1 - 15.2 - Partly cloudy 5 - - - -
23/01:30pm 23.1 WNW 5 7 1005.0 - 14.8 - Partly cloudy 8 - - - -
23/01:00pm 23.2 N 4 7 1005.0 - 13.4 - Cloudy 10 - - - -
23/12:46pm 23.2 NW 4 6 1005.1 - 13.2 - Partly cloudy 10 - - - -
23/12:30pm 22.9 NNW 6 9 1004.9 - 12.6 - Partly cloudy 7 - - - -
23/12:00pm 23.1 N 4 5 1004.6 - 11.6 Recent precip. Cloudy 10 - - - -
23/11:35am 22.2 NNW 4 6 1005.1 - 11.0 - Partly cloudy 10 - - - -
23/11:30am 22.3 N 4 6 1005.3 - 11.0 - Partly cloudy 9 - - - -
23/11:00am 21.9 NNE 5 7 1005.1 - 9.2 - Partly cloudy 5 - - - -
23/10:30am 21.8 N 5 6 1005.6 - 6.6 - Partly cloudy 5 - - - -
23/10:23am 21.8 NNE 4 7 1005.1 - 6.2 - Partly cloudy 5 - - - -
23/10:00am 22.2 NNE 7 10 1005.3 - 5.4 - Partly cloudy 6 - - - -
23/09:54am 22.2 N 7 10 1005.3 - 4.8 - Partly cloudy 7 - - - -
23/09:34am 22.3 NNE 7 9 1005.4 - 3.4 - Partly cloudy 5 - - - -
23/09:30am 22.3 NNE 6 9 1005.4 - 2.8 - Partly cloudy 8 - - - -
23/09:29am 22.3 NNE 6 9 1005.4 - 2.6 - Partly cloudy 10 - - - -
23/09:10am 22.4 W 13 18 1005.6 - 1.6 - Partly cloudy 5 - - - -
23/09:09am 22.5 W 13 18 1005.8 - 1.4 - Partly cloudy 6 - - - -
23/09:00am 22.1 W 12 19 1005.8 - 10.2 Rain Mostly cloudy 6 - - - -
23/08:35am 19.2 SW 4 6 1006.2 - 5.2 - Partly cloudy 5 - - - -
23/08:30am 19.2 WNW 4 6 1005.9 - 4.6 - Partly cloudy 10 - - - -
23/08:20am 19.1 NE 5 6 1005.1 - 4.4 - Partly cloudy 9 - - - -
23/08:00am 19.3 NNW 7 8 1005.6 - 3.2 - Partly cloudy 4 - - - -
23/07:53am 19.3 NW 8 11 1006.0 - 2.4 - Partly cloudy 5 - - - -
23/07:30am 20.2 W 5 8 1005.6 - 0.8 - Cloudy 10 - - - -
23/07:00am 20.3 N 5 7 1004.7 - 0.6 - Partly cloudy 10 - - - -
23/06:30am 20.2 WSW 10 13 1005.2 - 0.6 - Partly cloudy 10 - - - -
23/06:00am 20.5 SSW 7 9 1004.9 - 0.6 - Cloudy 10 - - - -
23/05:30am 20.6 SSW 5 5 1004.4 - 0.6 - Partly cloudy 10 - - - -
23/05:00am 20.8 S 5 6 1004.2 - 0.6 - Partly cloudy 10 - - - -
23/04:30am 20.6 WSW 6 7 1004.5 - 0.6 - Partly cloudy 10 - - - -
23/04:00am 20.9 CALM 0 0 1004.3 - 0.6 - Cloudy 10 - - - -
23/03:30am 20.7 N 3 4 1004.6 - 0.6 - Cloudy 10 - - - -
23/03:00am 20.4 N 3 4 1004.7 - 0.6 - Cloudy 10 - - - -
23/02:30am 20.5 N 3 4 1005.4 - 0.6 - Partly cloudy 10 - - - -
23/02:00am 20.9 NNE 3 5 1005.8 - 0.6 - Cloudy 10 - - - -
23/01:30am 21.1 NNE 3 4 1006.3 - 0.6 - Cloudy 10 - - - -
23/01:00am 21.1 NE 4 5 1006.8 - 0.6 - Partly cloudy 10 - - - -
23/12:30am 20.8 NE 4 5 1007.3 - 0.6 - Partly cloudy 10 - - - -
23/12:00am 20.8 CALM 0 3 1007.4 - 0.6 - Mostly cloudy 10 - - - -
 
Date/Time
CDT
Temp
°C
Wind Pressure Rain since
9am
mm
Weather Cloud Vis
km
Sea
Height
m
Swell
Dir  Spd
kts
Gust
kts
hPa Trend Height
m
Period
s
Dir
22/11:30pm 20.8 ENE 5 6 1007.5 - 0.6 - Cloudy 10 - - - -
22/11:00pm 21.0 E 5 7 1007.8 - 0.6 - Cloudy 10 - - - -
22/10:30pm 21.3 E 5 6 1008.0 - 0.6 - Cloudy 10 - - - -
22/10:00pm 21.5 SE 4 5 1007.8 - 0.6 - Cloudy 10 - - - -
22/09:30pm 21.1 SSE 7 8 1007.6 - 0.6 - Partly cloudy 10 - - - -
22/09:00pm 21.0 SW 5 6 1008.3 - 0.6 - Cloudy 10 - - - -
22/08:30pm 20.9 SSW 7 10 1008.2 - 0.6 - Cloudy 10 - - - -
22/08:00pm 21.1 S 9 11 1008.0 - 0.6 - Partly cloudy 10 - - - -
22/07:30pm 21.4 S 8 9 1007.8 - 0.6 - Partly cloudy 10 - - - -
22/07:00pm 21.4 S 11 14 1008.1 - 0.2 - Partly cloudy 10 - - - -
22/06:30pm 22.8 S 12 15 1008.2 - 0.2 - Partly cloudy 10 - - - -
22/06:00pm 23.6 S 12 14 1008.5 - 0.2 - Cloudy 10 - - - -
22/05:30pm 22.9 S 11 14 1008.7 - 0.2 - Cloudy 10 - - - -
22/05:00pm 23.0 S 10 12 1008.9 - 0.2 - Partly cloudy 10 - - - -
22/04:30pm 23.2 SW 10 13 1009.2 - 0.2 - Partly cloudy 10 - - - -
22/04:00pm 22.5 SSW 9 12 1009.5 - 0.2 - Partly cloudy 10 - - - -
22/03:30pm 22.0 WSW 16 23 1009.9 - 0.0 - Partly cloudy 8 - - - -
22/03:00pm 25.9 WSW 13 19 1009.7 - 0.0 - Mostly cloudy 10 - - - -
22/02:30pm 27.0 SSW 13 16 1009.5 - 0.0 - Partly cloudy 10 - - - -
22/02:00pm 27.0 S 9 13 1009.3 - 0.0 - Partly cloudy 10 - - - -
22/01:30pm 26.9 ESE 4 7 1009.2 - 0.0 - Partly cloudy 10 - - - -
22/01:00pm 25.9 E 7 10 1009.4 - 0.0 - Partly cloudy 10 - - - -
22/12:30pm 26.3 ENE 11 14 1009.5 - 0.0 - Partly cloudy 10 - - - -
22/12:00pm 27.2 ENE 14 16 1009.6 - 0.0 - Cloudy 10 - - - -
22/11:30am 27.1 ENE 13 16 1009.8 - 0.0 - - 10 - - - -
22/11:00am 26.9 ENE 12 14 1010.3 - 0.0 - Partly cloudy 10 - - - -
22/10:30am 25.5 ENE 11 13 1010.5 - 0.0 - Cloudy 10 - - - -
22/10:00am 25.6 ENE 8 11 1010.7 - 0.0 - Partly cloudy 10 - - - -
22/09:30am 23.0 ENE 5 8 1011.1 - 0.0 - Partly cloudy 10 - - - -
22/09:00am 22.4 NE 6 8 1011.2 - 0.0 - Cloudy 10 - - - -
22/08:30am 21.7 NE 3 7 1011.5 - 0.0 - Cloudy 10 - - - -
22/08:00am 20.5 CALM 0 0 1011.4 - 0.0 - Cloudy 10 - - - -
22/07:30am 19.9 CALM 0 3 1011.0 - 0.0 - Cloudy 10 - - - -
22/07:00am 19.3 CALM 0 0 1010.8 - 0.0 - Partly cloudy 10 - - - -
22/06:30am 18.7 CALM 0 0 1010.9 - 0.0 - - 10 - - - -
22/06:00am 18.5 NNW 3 4 1011.1 - 0.0 - Cloudy 10 - - - -
22/05:30am 18.7 N 2 4 1011.0 - 0.0 - - 10 - - - -
22/05:00am 19.4 ENE 5 7 1010.8 - 0.0 - - 10 - - - -
22/04:30am 18.9 E 5 8 1010.8 - 0.0 - - 10 - - - -
22/04:00am 18.6 E 7 8 1011.0 - 0.0 - - 10 - - - -
22/03:30am 17.1 ESE 5 7 1010.9 - 0.0 - - 10 - - - -
22/03:00am 16.7 ESE 6 7 1011.1 - 0.0 - - 10 - - - -
22/02:30am 18.1 E 8 9 1011.4 - 0.0 - - 10 - - - -
22/02:00am 18.0 E 7 8 1011.9 - 0.0 - - 10 - - - -
22/01:30am 18.4 E 9 12 1012.3 - 0.0 - - 10 - - - -
22/01:00am 18.8 E 10 12 1012.8 - 0.0 - - 10 - - - -
22/12:30am 18.4 E 9 13 1012.9 - 0.0 - - 10 - - - -
22/12:00am 17.2 SE 5 7 1013.0 - 0.0 - - 10 - - - -
 
Date/Time
CDT
Temp
°C
Wind Pressure Rain since
9am
mm
Weather Cloud Vis
km
Sea
Height
m
Swell
Dir  Spd
kts
Gust
kts
hPa Trend Height
m
Period
s
Dir
21/11:30pm 17.5 SE 5 7 1013.2 - 0.0 - - 10 - - - -
21/11:00pm 18.0 SE 8 10 1013.3 - 0.0 - - 10 - - - -
21/10:30pm 18.2 SSE 11 13 1013.5 - 0.0 - - 10 - - - -
21/10:00pm 18.3 SSE 11 14 1013.7 - 0.0 - - 10 - - - -
21/09:30pm 18.5 SSE 12 15 1013.7 - 0.0 - - 10 - - - -
21/09:00pm 18.8 SSE 12 16 1013.7 - 0.0 - - 10 - - - -
21/08:30pm 19.2 SSE 13 17 1013.4 - 0.0 - - 10 - - - -
21/08:00pm 19.9 SE 14 18 1013.3 - 0.0 - - 10 - - - -
21/07:30pm 20.6 SE 15 18 1013.1 - 0.0 - - 10 - - - -
21/07:00pm 20.7 SE 16 19 1013.0 - 0.0 - - 10 - - - -
21/06:30pm 21.3 SE 15 18 1012.8 - 0.0 - - 10 - - - -
21/06:00pm 21.6 SE 14 18 1012.7 - 0.0 - - 10 - - - -
21/05:30pm 21.5 SE 13 17 1012.9 - 0.0 - - 10 - - - -
21/05:00pm 22.0 SE 13 17 1013.0 - 0.0 - - 10 - - - -
21/04:30pm 22.5 SE 12 18 1013.3 - 0.0 - - 10 - - - -
21/04:00pm 22.4 E 11 15 1013.6 - 0.0 - - 10 - - - -

Other Formats:

Comma delimited format used in spreadsheet applications
http://www.bom.gov.au/fwo/IDS60701/IDS60701.95661.axf

JavaScript Object Notation format (JSON) in row-major order
http://www.bom.gov.au/fwo/IDS60701/IDS60701.95661.json